sensor_id;sensor_type;location;lat;lon;timestamp;P1;durP1;ratioP1;P2;durP2;ratioP2
18435;SDS011;9346;52.006;4.720;2023-03-26T00:00:24;19.40;;;2.67;;
18435;SDS011;9346;52.006;4.720;2023-03-26T00:02:51;12.50;;;2.63;;
18435;SDS011;9346;52.006;4.720;2023-03-26T00:05:19;16.60;;;3.13;;
18435;SDS011;9346;52.006;4.720;2023-03-26T00:07:46;16.63;;;2.77;;
18435;SDS011;9346;52.006;4.720;2023-03-26T00:10:13;19.00;;;2.53;;
18435;SDS011;9346;52.006;4.720;2023-03-26T00:12:40;15.93;;;4.33;;
18435;SDS011;9346;52.006;4.720;2023-03-26T00:15:07;24.77;;;3.73;;
18435;SDS011;9346;52.006;4.720;2023-03-26T00:17:35;16.63;;;3.20;;
18435;SDS011;9346;52.006;4.720;2023-03-26T00:20:02;16.40;;;2.50;;
18435;SDS011;9346;52.006;4.720;2023-03-26T00:22:31;17.57;;;3.40;;
18435;SDS011;9346;52.006;4.720;2023-03-26T00:24:58;28.90;;;4.40;;
18435;SDS011;9346;52.006;4.720;2023-03-26T00:27:25;17.37;;;3.27;;
18435;SDS011;9346;52.006;4.720;2023-03-26T00:29:53;22.77;;;2.77;;
18435;SDS011;9346;52.006;4.720;2023-03-26T00:32:20;25.23;;;4.17;;
18435;SDS011;9346;52.006;4.720;2023-03-26T00:34:50;27.90;;;3.73;;
18435;SDS011;9346;52.006;4.720;2023-03-26T00:37:18;18.00;;;4.13;;
18435;SDS011;9346;52.006;4.720;2023-03-26T00:39:52;18.20;;;3.10;;
18435;SDS011;9346;52.006;4.720;2023-03-26T00:42:23;16.17;;;3.70;;
18435;SDS011;9346;52.006;4.720;2023-03-26T00:44:50;27.53;;;4.70;;
18435;SDS011;9346;52.006;4.720;2023-03-26T00:47:21;32.63;;;4.23;;
18435;SDS011;9346;52.006;4.720;2023-03-26T00:49:49;28.13;;;5.07;;
18435;SDS011;9346;52.006;4.720;2023-03-26T00:52:15;23.93;;;4.60;;
18435;SDS011;9346;52.006;4.720;2023-03-26T00:54:43;19.23;;;3.83;;
18435;SDS011;9346;52.006;4.720;2023-03-26T00:57:11;32.53;;;4.53;;
18435;SDS011;9346;52.006;4.720;2023-03-26T00:59:39;35.93;;;4.53;;
18435;SDS011;9346;52.006;4.720;2023-03-26T01:02:06;22.83;;;4.13;;
18435;SDS011;9346;52.006;4.720;2023-03-26T01:04:35;24.03;;;3.60;;
18435;SDS011;9346;52.006;4.720;2023-03-26T01:07:04;25.90;;;4.00;;
18435;SDS011;9346;52.006;4.720;2023-03-26T01:09:36;29.03;;;4.63;;
18435;SDS011;9346;52.006;4.720;2023-03-26T01:12:08;27.47;;;4.57;;
18435;SDS011;9346;52.006;4.720;2023-03-26T01:14:41;42.33;;;6.20;;
18435;SDS011;9346;52.006;4.720;2023-03-26T01:17:08;28.83;;;4.93;;
18435;SDS011;9346;52.006;4.720;2023-03-26T01:19:37;34.43;;;4.93;;
18435;SDS011;9346;52.006;4.720;2023-03-26T01:22:14;24.97;;;4.13;;
18435;SDS011;9346;52.006;4.720;2023-03-26T01:24:44;15.97;;;3.90;;
18435;SDS011;9346;52.006;4.720;2023-03-26T01:27:19;26.43;;;5.10;;
18435;SDS011;9346;52.006;4.720;2023-03-26T01:29:56;20.57;;;4.13;;
18435;SDS011;9346;52.006;4.720;2023-03-26T01:32:34;24.67;;;3.93;;
18435;SDS011;9346;52.006;4.720;2023-03-26T01:35:12;36.83;;;4.93;;
18435;SDS011;9346;52.006;4.720;2023-03-26T01:37:52;14.00;;;2.93;;
18435;SDS011;9346;52.006;4.720;2023-03-26T01:40:37;26.97;;;4.73;;
18435;SDS011;9346;52.006;4.720;2023-03-26T01:43:09;22.93;;;4.50;;
18435;SDS011;9346;52.006;4.720;2023-03-26T01:45:41;34.70;;;4.47;;
18435;SDS011;9346;52.006;4.720;2023-03-26T01:48:11;31.50;;;4.53;;
18435;SDS011;9346;52.006;4.720;2023-03-26T01:50:39;26.73;;;4.77;;
18435;SDS011;9346;52.006;4.720;2023-03-26T01:53:06;28.00;;;4.77;;
18435;SDS011;9346;52.006;4.720;2023-03-26T01:55:38;24.13;;;4.83;;
18435;SDS011;9346;52.006;4.720;2023-03-26T01:58:18;33.30;;;4.93;;
18435;SDS011;9346;52.006;4.720;2023-03-26T02:00:56;27.20;;;3.93;;
18435;SDS011;9346;52.006;4.720;2023-03-26T02:03:33;22.60;;;3.33;;
18435;SDS011;9346;52.006;4.720;2023-03-26T02:06:05;27.90;;;4.07;;
18435;SDS011;9346;52.006;4.720;2023-03-26T02:08:40;29.27;;;3.77;;
18435;SDS011;9346;52.006;4.720;2023-03-26T02:11:13;22.37;;;4.50;;
18435;SDS011;9346;52.006;4.720;2023-03-26T02:13:41;35.30;;;4.60;;
18435;SDS011;9346;52.006;4.720;2023-03-26T02:16:10;17.57;;;4.17;;
18435;SDS011;9346;52.006;4.720;2023-03-26T02:18:38;22.40;;;3.53;;
18435;SDS011;9346;52.006;4.720;2023-03-26T02:21:07;28.83;;;4.37;;
18435;SDS011;9346;52.006;4.720;2023-03-26T02:23:36;29.67;;;4.93;;
18435;SDS011;9346;52.006;4.720;2023-03-26T02:26:05;27.63;;;4.43;;
18435;SDS011;9346;52.006;4.720;2023-03-26T02:28:34;25.43;;;5.20;;
18435;SDS011;9346;52.006;4.720;2023-03-26T02:31:05;17.87;;;3.93;;
18435;SDS011;9346;52.006;4.720;2023-03-26T02:33:35;28.23;;;4.30;;
18435;SDS011;9346;52.006;4.720;2023-03-26T02:36:04;21.53;;;3.37;;
18435;SDS011;9346;52.006;4.720;2023-03-26T02:38:32;21.83;;;4.20;;
18435;SDS011;9346;52.006;4.720;2023-03-26T02:40:59;19.73;;;4.03;;
18435;SDS011;9346;52.006;4.720;2023-03-26T02:43:26;22.87;;;3.73;;
18435;SDS011;9346;52.006;4.720;2023-03-26T02:45:55;31.00;;;4.63;;
18435;SDS011;9346;52.006;4.720;2023-03-26T02:48:22;32.47;;;5.43;;
18435;SDS011;9346;52.006;4.720;2023-03-26T02:50:49;31.93;;;4.83;;
18435;SDS011;9346;52.006;4.720;2023-03-26T02:53:18;30.87;;;5.20;;
18435;SDS011;9346;52.006;4.720;2023-03-26T02:55:45;33.37;;;4.17;;
18435;SDS011;9346;52.006;4.720;2023-03-26T02:58:12;21.53;;;4.97;;
18435;SDS011;9346;52.006;4.720;2023-03-26T03:00:41;22.17;;;5.13;;
18435;SDS011;9346;52.006;4.720;2023-03-26T03:03:10;19.73;;;4.30;;
18435;SDS011;9346;52.006;4.720;2023-03-26T03:05:37;29.20;;;4.50;;
18435;SDS011;9346;52.006;4.720;2023-03-26T03:08:07;14.07;;;3.30;;
18435;SDS011;9346;52.006;4.720;2023-03-26T03:10:34;30.13;;;4.83;;
18435;SDS011;9346;52.006;4.720;2023-03-26T03:13:02;28.00;;;3.87;;
18435;SDS011;9346;52.006;4.720;2023-03-26T03:15:31;22.07;;;4.60;;
18435;SDS011;9346;52.006;4.720;2023-03-26T03:17:58;21.23;;;4.60;;
18435;SDS011;9346;52.006;4.720;2023-03-26T03:20:28;20.77;;;5.17;;
18435;SDS011;9346;52.006;4.720;2023-03-26T03:22:59;17.07;;;3.80;;
18435;SDS011;9346;52.006;4.720;2023-03-26T03:25:26;23.83;;;4.93;;
18435;SDS011;9346;52.006;4.720;2023-03-26T03:27:53;25.27;;;3.90;;
18435;SDS011;9346;52.006;4.720;2023-03-26T03:30:20;12.93;;;2.73;;
18435;SDS011;9346;52.006;4.720;2023-03-26T03:32:47;20.17;;;4.43;;
18435;SDS011;9346;52.006;4.720;2023-03-26T03:35:14;21.33;;;4.10;;
18435;SDS011;9346;52.006;4.720;2023-03-26T03:37:42;32.77;;;5.27;;
18435;SDS011;9346;52.006;4.720;2023-03-26T03:40:09;34.53;;;4.53;;
18435;SDS011;9346;52.006;4.720;2023-03-26T03:42:37;13.43;;;4.17;;
18435;SDS011;9346;52.006;4.720;2023-03-26T03:45:04;20.83;;;4.20;;
18435;SDS011;9346;52.006;4.720;2023-03-26T03:47:32;28.70;;;5.50;;
18435;SDS011;9346;52.006;4.720;2023-03-26T03:49:59;21.83;;;3.60;;
18435;SDS011;9346;52.006;4.720;2023-03-26T03:52:26;24.70;;;4.27;;
18435;SDS011;9346;52.006;4.720;2023-03-26T03:54:55;21.60;;;4.30;;
18435;SDS011;9346;52.006;4.720;2023-03-26T03:57:24;24.30;;;3.77;;
18435;SDS011;9346;52.006;4.720;2023-03-26T03:59:51;22.57;;;5.10;;
18435;SDS011;9346;52.006;4.720;2023-03-26T04:02:22;18.97;;;4.80;;
18435;SDS011;9346;52.006;4.720;2023-03-26T04:04:54;26.07;;;4.63;;
18435;SDS011;9346;52.006;4.720;2023-03-26T04:07:22;23.47;;;4.73;;
18435;SDS011;9346;52.006;4.720;2023-03-26T04:09:50;29.93;;;5.17;;
18435;SDS011;9346;52.006;4.720;2023-03-26T04:12:18;25.60;;;4.23;;
18435;SDS011;9346;52.006;4.720;2023-03-26T04:14:45;29.77;;;4.37;;
18435;SDS011;9346;52.006;4.720;2023-03-26T04:17:12;26.73;;;5.47;;
18435;SDS011;9346;52.006;4.720;2023-03-26T04:19:40;26.63;;;4.73;;
18435;SDS011;9346;52.006;4.720;2023-03-26T04:22:08;25.10;;;5.43;;
18435;SDS011;9346;52.006;4.720;2023-03-26T04:24:36;19.63;;;4.63;;
18435;SDS011;9346;52.006;4.720;2023-03-26T04:27:04;18.47;;;4.20;;
18435;SDS011;9346;52.006;4.720;2023-03-26T04:29:37;24.23;;;5.80;;
18435;SDS011;9346;52.006;4.720;2023-03-26T04:32:07;20.77;;;4.13;;
18435;SDS011;9346;52.006;4.720;2023-03-26T04:34:38;27.20;;;4.07;;
18435;SDS011;9346;52.006;4.720;2023-03-26T04:37:11;14.50;;;3.80;;
18435;SDS011;9346;52.006;4.720;2023-03-26T04:39:50;22.37;;;4.00;;
18435;SDS011;9346;52.006;4.720;2023-03-26T04:42:18;30.47;;;5.13;;
18435;SDS011;9346;52.006;4.720;2023-03-26T04:44:47;19.93;;;4.77;;
18435;SDS011;9346;52.006;4.720;2023-03-26T04:47:16;13.27;;;3.90;;
18435;SDS011;9346;52.006;4.720;2023-03-26T04:49:43;11.90;;;4.40;;
18435;SDS011;9346;52.006;4.720;2023-03-26T04:52:11;28.67;;;4.40;;
18435;SDS011;9346;52.006;4.720;2023-03-26T04:54:38;21.87;;;4.47;;
18435;SDS011;9346;52.006;4.720;2023-03-26T04:57:09;20.13;;;3.97;;
18435;SDS011;9346;52.006;4.720;2023-03-26T04:59:41;26.37;;;5.03;;
18435;SDS011;9346;52.006;4.720;2023-03-26T05:02:10;15.33;;;4.07;;
18435;SDS011;9346;52.006;4.720;2023-03-26T05:04:38;26.40;;;5.37;;
18435;SDS011;9346;52.006;4.720;2023-03-26T05:07:05;18.07;;;4.90;;
18435;SDS011;9346;52.006;4.720;2023-03-26T05:09:33;17.73;;;5.57;;
18435;SDS011;9346;52.006;4.720;2023-03-26T05:12:00;19.67;;;4.90;;
18435;SDS011;9346;52.006;4.720;2023-03-26T05:14:27;29.30;;;4.27;;
18435;SDS011;9346;52.006;4.720;2023-03-26T05:16:54;19.40;;;4.40;;
18435;SDS011;9346;52.006;4.720;2023-03-26T05:19:23;23.30;;;5.17;;
18435;SDS011;9346;52.006;4.720;2023-03-26T05:21:51;20.40;;;5.27;;
18435;SDS011;9346;52.006;4.720;2023-03-26T05:24:18;32.63;;;5.37;;
18435;SDS011;9346;52.006;4.720;2023-03-26T05:26:45;24.47;;;4.67;;
18435;SDS011;9346;52.006;4.720;2023-03-26T05:29:12;36.30;;;5.47;;
18435;SDS011;9346;52.006;4.720;2023-03-26T05:31:41;32.57;;;6.40;;
18435;SDS011;9346;52.006;4.720;2023-03-26T05:34:08;23.63;;;5.57;;
18435;SDS011;9346;52.006;4.720;2023-03-26T05:36:36;29.00;;;6.10;;
18435;SDS011;9346;52.006;4.720;2023-03-26T05:39:03;26.87;;;6.03;;
18435;SDS011;9346;52.006;4.720;2023-03-26T05:41:30;24.27;;;5.27;;
18435;SDS011;9346;52.006;4.720;2023-03-26T05:43:57;23.60;;;5.53;;
18435;SDS011;9346;52.006;4.720;2023-03-26T05:46:24;20.13;;;6.27;;
18435;SDS011;9346;52.006;4.720;2023-03-26T05:48:51;19.23;;;6.37;;
18435;SDS011;9346;52.006;4.720;2023-03-26T05:51:18;25.73;;;5.90;;
18435;SDS011;9346;52.006;4.720;2023-03-26T05:53:49;15.97;;;5.67;;
18435;SDS011;9346;52.006;4.720;2023-03-26T05:56:15;21.17;;;5.40;;
18435;SDS011;9346;52.006;4.720;2023-03-26T05:58:42;14.83;;;5.00;;
18435;SDS011;9346;52.006;4.720;2023-03-26T06:01:10;22.53;;;5.20;;
18435;SDS011;9346;52.006;4.720;2023-03-26T06:03:40;22.43;;;6.23;;
18435;SDS011;9346;52.006;4.720;2023-03-26T06:06:09;34.37;;;6.50;;
18435;SDS011;9346;52.006;4.720;2023-03-26T06:08:39;15.57;;;5.30;;
18435;SDS011;9346;52.006;4.720;2023-03-26T06:11:09;29.50;;;6.37;;
18435;SDS011;9346;52.006;4.720;2023-03-26T06:13:36;21.90;;;4.90;;
18435;SDS011;9346;52.006;4.720;2023-03-26T06:16:04;20.47;;;5.47;;
18435;SDS011;9346;52.006;4.720;2023-03-26T06:18:31;25.10;;;5.73;;
18435;SDS011;9346;52.006;4.720;2023-03-26T06:20:58;17.23;;;5.20;;
18435;SDS011;9346;52.006;4.720;2023-03-26T06:23:27;16.60;;;4.90;;
18435;SDS011;9346;52.006;4.720;2023-03-26T06:25:54;20.63;;;5.47;;
18435;SDS011;9346;52.006;4.720;2023-03-26T06:28:23;27.27;;;6.67;;
18435;SDS011;9346;52.006;4.720;2023-03-26T06:30:50;17.40;;;5.70;;
18435;SDS011;9346;52.006;4.720;2023-03-26T06:33:17;23.83;;;5.97;;
18435;SDS011;9346;52.006;4.720;2023-03-26T06:35:45;16.13;;;4.43;;
18435;SDS011;9346;52.006;4.720;2023-03-26T06:38:12;23.03;;;4.97;;
18435;SDS011;9346;52.006;4.720;2023-03-26T06:40:39;20.27;;;5.00;;
18435;SDS011;9346;52.006;4.720;2023-03-26T06:43:06;23.40;;;5.47;;
18435;SDS011;9346;52.006;4.720;2023-03-26T06:45:34;23.27;;;5.10;;
18435;SDS011;9346;52.006;4.720;2023-03-26T06:48:01;15.00;;;5.50;;
18435;SDS011;9346;52.006;4.720;2023-03-26T06:50:28;17.63;;;4.93;;
18435;SDS011;9346;52.006;4.720;2023-03-26T06:52:56;11.87;;;4.33;;
18435;SDS011;9346;52.006;4.720;2023-03-26T06:55:23;26.27;;;5.03;;
18435;SDS011;9346;52.006;4.720;2023-03-26T06:57:51;23.57;;;5.47;;
18435;SDS011;9346;52.006;4.720;2023-03-26T07:00:19;13.50;;;4.70;;
18435;SDS011;9346;52.006;4.720;2023-03-26T07:02:48;16.23;;;4.73;;
18435;SDS011;9346;52.006;4.720;2023-03-26T07:05:15;13.57;;;4.37;;
18435;SDS011;9346;52.006;4.720;2023-03-26T07:07:42;23.17;;;5.37;;
18435;SDS011;9346;52.006;4.720;2023-03-26T07:10:09;17.87;;;5.23;;
18435;SDS011;9346;52.006;4.720;2023-03-26T07:12:37;11.50;;;4.50;;
18435;SDS011;9346;52.006;4.720;2023-03-26T07:15:04;13.67;;;4.17;;
18435;SDS011;9346;52.006;4.720;2023-03-26T07:17:32;13.27;;;4.43;;
18435;SDS011;9346;52.006;4.720;2023-03-26T07:20:01;18.80;;;4.67;;
18435;SDS011;9346;52.006;4.720;2023-03-26T07:22:29;16.97;;;5.70;;
18435;SDS011;9346;52.006;4.720;2023-03-26T07:24:56;18.97;;;5.10;;
18435;SDS011;9346;52.006;4.720;2023-03-26T07:27:29;25.07;;;5.63;;
18435;SDS011;9346;52.006;4.720;2023-03-26T07:30:03;15.37;;;4.90;;
18435;SDS011;9346;52.006;4.720;2023-03-26T07:32:35;18.17;;;4.93;;
18435;SDS011;9346;52.006;4.720;2023-03-26T07:35:15;22.10;;;4.70;;
18435;SDS011;9346;52.006;4.720;2023-03-26T07:37:49;19.57;;;5.27;;
18435;SDS011;9346;52.006;4.720;2023-03-26T07:40:29;13.07;;;4.77;;
18435;SDS011;9346;52.006;4.720;2023-03-26T07:43:12;15.10;;;4.63;;
18435;SDS011;9346;52.006;4.720;2023-03-26T07:45:49;32.20;;;5.43;;
18435;SDS011;9346;52.006;4.720;2023-03-26T07:48:19;20.43;;;5.30;;
18435;SDS011;9346;52.006;4.720;2023-03-26T07:50:51;20.53;;;4.70;;
18435;SDS011;9346;52.006;4.720;2023-03-26T07:53:19;17.43;;;3.77;;
18435;SDS011;9346;52.006;4.720;2023-03-26T07:55:48;16.23;;;5.07;;
18435;SDS011;9346;52.006;4.720;2023-03-26T07:58:26;12.53;;;4.70;;
18435;SDS011;9346;52.006;4.720;2023-03-26T08:01:07;10.60;;;4.57;;
18435;SDS011;9346;52.006;4.720;2023-03-26T08:03:52;11.77;;;4.57;;
18435;SDS011;9346;52.006;4.720;2023-03-26T08:06:35;18.10;;;4.83;;
18435;SDS011;9346;52.006;4.720;2023-03-26T08:09:06;27.27;;;5.13;;
18435;SDS011;9346;52.006;4.720;2023-03-26T08:11:44;13.70;;;3.83;;
18435;SDS011;9346;52.006;4.720;2023-03-26T08:14:26;16.30;;;5.40;;
18435;SDS011;9346;52.006;4.720;2023-03-26T08:17:04;16.17;;;5.03;;
18435;SDS011;9346;52.006;4.720;2023-03-26T08:19:42;10.37;;;4.57;;
18435;SDS011;9346;52.006;4.720;2023-03-26T08:22:18;22.53;;;5.57;;
18435;SDS011;9346;52.006;4.720;2023-03-26T08:25:00;34.93;;;5.37;;
18435;SDS011;9346;52.006;4.720;2023-03-26T08:27:37;21.00;;;5.60;;
18435;SDS011;9346;52.006;4.720;2023-03-26T08:30:07;14.10;;;4.53;;
18435;SDS011;9346;52.006;4.720;2023-03-26T08:32:40;19.37;;;5.40;;
18435;SDS011;9346;52.006;4.720;2023-03-26T08:35:10;24.27;;;6.13;;
18435;SDS011;9346;52.006;4.720;2023-03-26T08:37:39;26.17;;;6.20;;
18435;SDS011;9346;52.006;4.720;2023-03-26T08:40:09;24.60;;;7.30;;
18435;SDS011;9346;52.006;4.720;2023-03-26T08:42:52;19.73;;;6.50;;
18435;SDS011;9346;52.006;4.720;2023-03-26T08:54:55;23.63;;;7.27;;
18435;SDS011;9346;52.006;4.720;2023-03-26T08:57:47;25.17;;;8.93;;
18435;SDS011;9346;52.006;4.720;2023-03-26T09:00:34;18.27;;;6.97;;
18435;SDS011;9346;52.006;4.720;2023-03-26T09:03:15;24.43;;;7.27;;
18435;SDS011;9346;52.006;4.720;2023-03-26T09:06:11;22.57;;;7.50;;
18435;SDS011;9346;52.006;4.720;2023-03-26T09:12:26;26.47;;;7.17;;
18435;SDS011;9346;52.006;4.720;2023-03-26T09:24:26;25.83;;;8.60;;
18435;SDS011;9346;52.006;4.720;2023-03-26T09:27:07;18.17;;;6.77;;
18435;SDS011;9346;52.006;4.720;2023-03-26T09:30:03;27.83;;;7.33;;
18435;SDS011;9346;52.006;4.720;2023-03-26T09:33:07;19.20;;;8.13;;
18435;SDS011;9346;52.006;4.720;2023-03-26T09:36:07;26.40;;;7.20;;
18435;SDS011;9346;52.006;4.720;2023-03-26T09:38:44;19.93;;;6.67;;
18435;SDS011;9346;52.006;4.720;2023-03-26T09:41:20;20.17;;;6.97;;
18435;SDS011;9346;52.006;4.720;2023-03-26T09:47:25;14.40;;;5.83;;
18435;SDS011;9346;52.006;4.720;2023-03-26T09:50:18;16.17;;;5.93;;
18435;SDS011;9346;52.006;4.720;2023-03-26T09:53:03;23.67;;;6.20;;
18435;SDS011;9346;52.006;4.720;2023-03-26T09:55:49;16.77;;;6.43;;
18435;SDS011;9346;52.006;4.720;2023-03-26T09:58:27;14.13;;;6.43;;
18435;SDS011;9346;52.006;4.720;2023-03-26T10:01:29;15.67;;;6.30;;
18435;SDS011;9346;52.006;4.720;2023-03-26T10:04:09;16.37;;;6.40;;
18435;SDS011;9346;52.006;4.720;2023-03-26T10:07:03;16.17;;;6.90;;
18435;SDS011;9346;52.006;4.720;2023-03-26T10:09:39;19.80;;;6.70;;
18435;SDS011;9346;52.006;4.720;2023-03-26T10:12:19;14.77;;;6.50;;
18435;SDS011;9346;52.006;4.720;2023-03-26T10:14:53;18.77;;;6.40;;
18435;SDS011;9346;52.006;4.720;2023-03-26T10:17:34;20.53;;;6.20;;
18435;SDS011;9346;52.006;4.720;2023-03-26T10:20:18;10.37;;;4.93;;
18435;SDS011;9346;52.006;4.720;2023-03-26T10:23:03;23.90;;;6.63;;
18435;SDS011;9346;52.006;4.720;2023-03-26T10:25:48;14.73;;;5.37;;
18435;SDS011;9346;52.006;4.720;2023-03-26T10:28:26;14.93;;;6.17;;
18435;SDS011;9346;52.006;4.720;2023-03-26T10:31:16;21.33;;;6.60;;
18435;SDS011;9346;52.006;4.720;2023-03-26T10:33:59;11.07;;;6.00;;
18435;SDS011;9346;52.006;4.720;2023-03-26T10:36:37;21.40;;;6.70;;
18435;SDS011;9346;52.006;4.720;2023-03-26T10:39:16;20.60;;;6.67;;
18435;SDS011;9346;52.006;4.720;2023-03-26T10:42:12;16.23;;;5.80;;
18435;SDS011;9346;52.006;4.720;2023-03-26T10:44:54;14.00;;;5.83;;
18435;SDS011;9346;52.006;4.720;2023-03-26T10:47:40;15.00;;;5.13;;
18435;SDS011;9346;52.006;4.720;2023-03-26T10:50:25;14.87;;;4.57;;
18435;SDS011;9346;52.006;4.720;2023-03-26T10:53:03;15.70;;;4.80;;
18435;SDS011;9346;52.006;4.720;2023-03-26T10:55:35;16.20;;;5.03;;
18435;SDS011;9346;52.006;4.720;2023-03-26T10:58:04;16.23;;;4.77;;
18435;SDS011;9346;52.006;4.720;2023-03-26T11:00:41;15.00;;;4.33;;
18435;SDS011;9346;52.006;4.720;2023-03-26T11:03:19;14.07;;;3.50;;
18435;SDS011;9346;52.006;4.720;2023-03-26T11:06:01;10.77;;;2.93;;
18435;SDS011;9346;52.006;4.720;2023-03-26T11:08:39;13.43;;;3.83;;
18435;SDS011;9346;52.006;4.720;2023-03-26T11:11:17;21.90;;;4.10;;
18435;SDS011;9346;52.006;4.720;2023-03-26T11:13:52;12.60;;;3.93;;
18435;SDS011;9346;52.006;4.720;2023-03-26T11:16:28;18.13;;;3.20;;
18435;SDS011;9346;52.006;4.720;2023-03-26T11:19:09;18.73;;;3.40;;
18435;SDS011;9346;52.006;4.720;2023-03-26T11:21:42;11.73;;;3.23;;
18435;SDS011;9346;52.006;4.720;2023-03-26T11:27:15;18.60;;;2.70;;
18435;SDS011;9346;52.006;4.720;2023-03-26T11:29:54;12.90;;;3.20;;
18435;SDS011;9346;52.006;4.720;2023-03-26T11:32:37;12.50;;;2.87;;
18435;SDS011;9346;52.006;4.720;2023-03-26T11:35:13;16.00;;;3.30;;
18435;SDS011;9346;52.006;4.720;2023-03-26T11:37:43;10.40;;;2.83;;
18435;SDS011;9346;52.006;4.720;2023-03-26T11:40:15;16.90;;;3.10;;
18435;SDS011;9346;52.006;4.720;2023-03-26T11:42:48;18.90;;;3.37;;
18435;SDS011;9346;52.006;4.720;2023-03-26T11:45:17;13.90;;;2.93;;
18435;SDS011;9346;52.006;4.720;2023-03-26T11:47:48;15.70;;;3.23;;
18435;SDS011;9346;52.006;4.720;2023-03-26T11:50:19;12.03;;;3.10;;
18435;SDS011;9346;52.006;4.720;2023-03-26T11:52:51;14.10;;;2.63;;
18435;SDS011;9346;52.006;4.720;2023-03-26T11:55:21;16.30;;;3.37;;
18435;SDS011;9346;52.006;4.720;2023-03-26T11:57:50;11.33;;;2.73;;
18435;SDS011;9346;52.006;4.720;2023-03-26T12:00:19;13.67;;;2.97;;
18435;SDS011;9346;52.006;4.720;2023-03-26T12:02:54;7.27;;;2.37;;
18435;SDS011;9346;52.006;4.720;2023-03-26T12:05:22;22.30;;;3.50;;
18435;SDS011;9346;52.006;4.720;2023-03-26T12:07:53;13.83;;;3.10;;
18435;SDS011;9346;52.006;4.720;2023-03-26T12:10:25;12.23;;;3.07;;
18435;SDS011;9346;52.006;4.720;2023-03-26T12:12:55;5.87;;;2.27;;
18435;SDS011;9346;52.006;4.720;2023-03-26T12:15:25;22.07;;;3.10;;
18435;SDS011;9346;52.006;4.720;2023-03-26T12:17:54;13.33;;;2.63;;
18435;SDS011;9346;52.006;4.720;2023-03-26T12:20:30;5.70;;;2.47;;
18435;SDS011;9346;52.006;4.720;2023-03-26T12:23:00;15.73;;;2.67;;
18435;SDS011;9346;52.006;4.720;2023-03-26T12:25:31;9.90;;;2.00;;
18435;SDS011;9346;52.006;4.720;2023-03-26T12:28:00;9.93;;;2.13;;
18435;SDS011;9346;52.006;4.720;2023-03-26T12:30:30;20.03;;;3.10;;
18435;SDS011;9346;52.006;4.720;2023-03-26T12:33:04;12.37;;;2.27;;
18435;SDS011;9346;52.006;4.720;2023-03-26T12:35:33;12.37;;;2.53;;
18435;SDS011;9346;52.006;4.720;2023-03-26T12:38:14;15.70;;;2.50;;
18435;SDS011;9346;52.006;4.720;2023-03-26T12:40:49;8.03;;;1.77;;
18435;SDS011;9346;52.006;4.720;2023-03-26T12:43:30;7.70;;;3.27;;
18435;SDS011;9346;52.006;4.720;2023-03-26T12:46:08;17.77;;;2.80;;
18435;SDS011;9346;52.006;4.720;2023-03-26T12:48:47;4.47;;;2.07;;
18435;SDS011;9346;52.006;4.720;2023-03-26T12:51:16;10.13;;;2.20;;
18435;SDS011;9346;52.006;4.720;2023-03-26T12:53:52;7.37;;;2.27;;
18435;SDS011;9346;52.006;4.720;2023-03-26T12:56:30;14.30;;;2.50;;
18435;SDS011;9346;52.006;4.720;2023-03-26T13:01:54;7.77;;;2.10;;
18435;SDS011;9346;52.006;4.720;2023-03-26T13:04:34;5.10;;;1.73;;
18435;SDS011;9346;52.006;4.720;2023-03-26T13:07:15;11.37;;;2.53;;
18435;SDS011;9346;52.006;4.720;2023-03-26T13:09:49;12.13;;;3.27;;
18435;SDS011;9346;52.006;4.720;2023-03-26T13:12:37;16.13;;;2.53;;
18435;SDS011;9346;52.006;4.720;2023-03-26T13:15:12;7.53;;;1.90;;
18435;SDS011;9346;52.006;4.720;2023-03-26T13:17:48;8.33;;;2.60;;
18435;SDS011;9346;52.006;4.720;2023-03-26T13:20:27;6.80;;;1.73;;
18435;SDS011;9346;52.006;4.720;2023-03-26T13:23:02;16.77;;;1.77;;
18435;SDS011;9346;52.006;4.720;2023-03-26T13:25:39;8.77;;;1.80;;
18435;SDS011;9346;52.006;4.720;2023-03-26T13:28:20;9.30;;;1.67;;
18435;SDS011;9346;52.006;4.720;2023-03-26T13:31:01;9.17;;;1.43;;
18435;SDS011;9346;52.006;4.720;2023-03-26T13:33:37;6.13;;;1.30;;
18435;SDS011;9346;52.006;4.720;2023-03-26T13:36:12;9.17;;;1.50;;
18435;SDS011;9346;52.006;4.720;2023-03-26T13:38:47;10.10;;;2.40;;
18435;SDS011;9346;52.006;4.720;2023-03-26T13:41:26;12.60;;;2.27;;
18435;SDS011;9346;52.006;4.720;2023-03-26T13:44:05;16.43;;;1.77;;
18435;SDS011;9346;52.006;4.720;2023-03-26T13:46:44;10.40;;;1.40;;
18435;SDS011;9346;52.006;4.720;2023-03-26T13:49:14;4.43;;;1.03;;
18435;SDS011;9346;52.006;4.720;2023-03-26T13:51:46;7.33;;;1.07;;
18435;SDS011;9346;52.006;4.720;2023-03-26T13:54:18;5.87;;;1.60;;
18435;SDS011;9346;52.006;4.720;2023-03-26T13:56:51;9.27;;;2.10;;
18435;SDS011;9346;52.006;4.720;2023-03-26T13:59:25;6.90;;;1.70;;
18435;SDS011;9346;52.006;4.720;2023-03-26T14:01:58;7.00;;;1.30;;
18435;SDS011;9346;52.006;4.720;2023-03-26T14:04:29;8.93;;;1.33;;
18435;SDS011;9346;52.006;4.720;2023-03-26T14:07:02;8.07;;;2.13;;
18435;SDS011;9346;52.006;4.720;2023-03-26T14:09:35;13.57;;;1.73;;
18435;SDS011;9346;52.006;4.720;2023-03-26T14:12:19;6.90;;;1.70;;
18435;SDS011;9346;52.006;4.720;2023-03-26T14:14:55;13.57;;;2.23;;
18435;SDS011;9346;52.006;4.720;2023-03-26T14:17:30;4.00;;;1.20;;
18435;SDS011;9346;52.006;4.720;2023-03-26T14:26:09;4.10;;;1.30;;
18435;SDS011;9346;52.006;4.720;2023-03-26T14:28:55;13.70;;;1.30;;
18435;SDS011;9346;52.006;4.720;2023-03-26T14:31:37;4.27;;;1.47;;
18435;SDS011;9346;52.006;4.720;2023-03-26T14:34:22;4.13;;;1.27;;
18435;SDS011;9346;52.006;4.720;2023-03-26T14:37:05;4.37;;;1.27;;
18435;SDS011;9346;52.006;4.720;2023-03-26T14:42:49;5.73;;;1.20;;
18435;SDS011;9346;52.006;4.720;2023-03-26T14:45:23;9.00;;;1.90;;
18435;SDS011;9346;52.006;4.720;2023-03-26T14:48:09;5.00;;;1.50;;
18435;SDS011;9346;52.006;4.720;2023-03-26T14:51:00;5.13;;;1.27;;
18435;SDS011;9346;52.006;4.720;2023-03-26T14:53:37;12.97;;;1.60;;
18435;SDS011;9346;52.006;4.720;2023-03-26T14:56:14;9.83;;;1.80;;
18435;SDS011;9346;52.006;4.720;2023-03-26T15:02:27;4.97;;;0.80;;
18435;SDS011;9346;52.006;4.720;2023-03-26T15:08:36;5.37;;;1.13;;
18435;SDS011;9346;52.006;4.720;2023-03-26T15:11:28;2.80;;;0.97;;
18435;SDS011;9346;52.006;4.720;2023-03-26T15:17:25;2.37;;;0.87;;
18435;SDS011;9346;52.006;4.720;2023-03-26T15:23:56;8.37;;;2.20;;
18435;SDS011;9346;52.006;4.720;2023-03-26T15:42:10;3.43;;;1.20;;
18435;SDS011;9346;52.006;4.720;2023-03-26T15:44:47;3.57;;;1.10;;
18435;SDS011;9346;52.006;4.720;2023-03-26T15:50:25;4.37;;;1.10;;
18435;SDS011;9346;52.006;4.720;2023-03-26T15:53:04;5.83;;;1.77;;
18435;SDS011;9346;52.006;4.720;2023-03-26T15:55:50;11.53;;;1.60;;
18435;SDS011;9346;52.006;4.720;2023-03-26T15:58:25;6.37;;;1.20;;
18435;SDS011;9346;52.006;4.720;2023-03-26T16:01:02;3.03;;;1.20;;
18435;SDS011;9346;52.006;4.720;2023-03-26T16:03:44;14.23;;;2.07;;
18435;SDS011;9346;52.006;4.720;2023-03-26T16:06:28;2.23;;;1.20;;
18435;SDS011;9346;52.006;4.720;2023-03-26T16:09:00;11.63;;;2.57;;
18435;SDS011;9346;52.006;4.720;2023-03-26T16:11:54;4.00;;;1.30;;
18435;SDS011;9346;52.006;4.720;2023-03-26T16:14:23;5.43;;;1.37;;
18435;SDS011;9346;52.006;4.720;2023-03-26T16:17:09;3.90;;;1.03;;
18435;SDS011;9346;52.006;4.720;2023-03-26T16:22:34;6.20;;;1.00;;
18435;SDS011;9346;52.006;4.720;2023-03-26T16:25:26;5.10;;;1.43;;
18435;SDS011;9346;52.006;4.720;2023-03-26T16:28:18;2.23;;;1.03;;
18435;SDS011;9346;52.006;4.720;2023-03-26T16:34:17;9.47;;;1.73;;
18435;SDS011;9346;52.006;4.720;2023-03-26T16:37:03;5.30;;;1.17;;
18435;SDS011;9346;52.006;4.720;2023-03-26T16:39:51;5.80;;;1.17;;
18435;SDS011;9346;52.006;4.720;2023-03-26T16:42:23;7.20;;;1.07;;
18435;SDS011;9346;52.006;4.720;2023-03-26T16:45:05;10.60;;;2.10;;
18435;SDS011;9346;52.006;4.720;2023-03-26T16:47:45;3.90;;;1.57;;